In Rescue
 
Open Full Screen Window  High Contrast Mode
Wind Gusting 00 knots
05
March 31, 2020 4:04 PM EDT
Weather Information
Wind Direction
  020 °
Wind Speed
  05 kt (6 mph)
Wind Gust
  00 kt (0 mph)
Altimeter
29.88 in
Visibility
10 SM
Temperature
07° C
45° F
Dewpoint
01° C
34° F
Humidity
66%
1hr Rain Fall
00.00 in.
24hr Rain Fall
00.01 in.
Sky Condition
Overcast @ 4,000 ft
VFR

METAR KMRT 312004Z AUTO 02005KT 10SM OVC040 07/01 A2988 RMK AO2 T00650005

FAA Disclaimer: The data displayed is for advisory purposes only and is not to be used for flight planning or operations.